createdAt,value
2023-05-10T00:00:10.222Z,0.80
2023-05-10T00:02:55.549Z,0.65
2023-05-10T00:05:41.577Z,0.60
2023-05-10T00:08:27.151Z,0.77
2023-05-10T00:11:12.742Z,0.70
2023-05-10T00:13:58.110Z,0.70
2023-05-10T00:16:43.630Z,0.63
2023-05-10T00:19:29.142Z,0.70
2023-05-10T00:22:14.435Z,0.88
2023-05-10T00:25:00.393Z,0.68
2023-05-10T00:27:46.047Z,0.68
2023-05-10T00:30:31.872Z,0.88
2023-05-10T00:33:17.470Z,0.98
2023-05-10T00:36:02.913Z,0.80
2023-05-10T00:38:48.153Z,0.88
2023-05-10T00:41:33.964Z,0.60
2023-05-10T00:44:19.591Z,0.70
2023-05-10T00:47:05.357Z,0.70
2023-05-10T00:49:51.566Z,0.70
2023-05-10T00:52:37.326Z,0.75
2023-05-10T00:55:22.904Z,0.63
2023-05-10T00:58:08.730Z,0.80
2023-05-10T01:00:56.063Z,0.80
2023-05-10T01:03:42.604Z,0.70
2023-05-10T01:06:28.794Z,0.60
2023-05-10T01:09:14.311Z,0.60
2023-05-10T01:12:02.630Z,0.90
2023-05-10T01:14:49.040Z,0.80
2023-05-10T01:17:36.031Z,0.95
2023-05-10T01:20:21.578Z,0.80
2023-05-10T01:23:53.363Z,0.68
2023-05-10T01:26:53.991Z,0.80
2023-05-10T01:30:25.206Z,0.70
2023-05-10T01:33:19.750Z,0.70
2023-05-10T01:36:13.828Z,0.60
2023-05-10T01:39:11.245Z,0.65
2023-05-10T01:42:17.526Z,0.60
2023-05-10T01:45:18.294Z,0.70
2023-05-10T01:48:08.311Z,0.80
2023-05-10T01:50:55.831Z,0.70
2023-05-10T01:53:42.636Z,0.70
2023-05-10T01:56:30.613Z,0.88
2023-05-10T01:59:19.361Z,0.70
2023-05-10T02:02:06.549Z,0.57
2023-05-10T02:04:53.242Z,0.45
2023-05-10T02:07:38.860Z,0.70
2023-05-10T02:10:24.340Z,0.47
2023-05-10T02:13:11.185Z,0.77
2023-05-10T02:15:58.090Z,0.90
2023-05-10T02:18:44.381Z,0.80
2023-05-10T02:21:31.717Z,0.63
2023-05-10T02:24:17.928Z,0.70
2023-05-10T02:27:05.367Z,0.68
2023-05-10T02:29:52.443Z,0.88
2023-05-10T02:32:38.639Z,0.70
2023-05-10T02:35:24.966Z,1.08
2023-05-10T02:38:11.441Z,0.60
2023-05-10T02:40:57.687Z,0.75
2023-05-10T02:43:44.314Z,0.60
2023-05-10T02:46:29.813Z,0.80
2023-05-10T02:49:16.618Z,0.73
2023-05-10T02:52:06.781Z,0.68
2023-05-10T02:54:56.277Z,0.75
2023-05-10T02:57:52.760Z,0.90
2023-05-10T03:00:38.069Z,0.73
2023-05-10T03:03:23.436Z,0.50
2023-05-10T03:06:09.119Z,0.60
2023-05-10T03:08:54.747Z,0.80
2023-05-10T03:12:03.186Z,0.60
2023-05-10T03:14:57.428Z,0.70
2023-05-10T03:18:13.851Z,0.70
2023-05-10T03:21:03.805Z,0.60
2023-05-10T03:23:58.929Z,0.60
2023-05-10T03:26:46.636Z,0.70
2023-05-10T03:29:32.977Z,0.70
2023-05-10T03:32:18.490Z,0.47
2023-05-10T03:35:14.337Z,0.70
2023-05-10T03:38:00.024Z,0.80
2023-05-10T03:40:45.739Z,0.60
2023-05-10T03:43:31.096Z,0.68
2023-05-10T03:46:16.666Z,0.77
2023-05-10T03:49:02.082Z,0.80
2023-05-10T03:51:47.356Z,0.80
2023-05-10T03:54:33.294Z,0.85
2023-05-10T03:57:18.836Z,0.70
2023-05-10T04:00:05.012Z,0.90
2023-05-10T04:02:50.582Z,0.73
2023-05-10T04:05:36.781Z,0.80
2023-05-10T04:08:22.465Z,0.80
2023-05-10T04:11:09.291Z,0.70
2023-05-10T04:13:54.631Z,0.70
2023-05-10T04:16:40.406Z,0.80
2023-05-10T04:19:25.564Z,0.65
2023-05-10T04:22:11.237Z,0.90
2023-05-10T04:24:56.859Z,0.80
2023-05-10T04:27:42.708Z,0.90
2023-05-10T04:30:30.239Z,0.98
2023-05-10T04:33:16.259Z,0.90
2023-05-10T04:36:01.882Z,0.98
2023-05-10T04:38:47.758Z,1.85
2023-05-10T04:41:33.289Z,0.98
2023-05-10T04:44:18.514Z,1.13
2023-05-10T04:47:04.140Z,0.95
2023-05-10T04:49:49.520Z,0.88
2023-05-10T04:52:35.361Z,0.93
2023-05-10T04:55:20.692Z,1.08
2023-05-10T04:58:06.530Z,1.00
2023-05-10T05:00:51.855Z,1.05
2023-05-10T05:03:37.694Z,1.40
2023-05-10T05:06:23.564Z,0.95
2023-05-10T05:09:08.862Z,1.10
2023-05-10T05:11:54.593Z,1.00
2023-05-10T05:14:39.834Z,1.23
2023-05-10T05:17:25.475Z,1.10
2023-05-10T05:20:11.857Z,1.25
2023-05-10T05:22:57.363Z,0.98
2023-05-10T05:25:43.229Z,1.40
2023-05-10T05:28:33.839Z,1.20
2023-05-10T05:31:19.114Z,0.90
2023-05-10T05:34:04.880Z,2.13
2023-05-10T05:36:50.262Z,1.00
2023-05-10T05:39:37.384Z,1.00
2023-05-10T05:42:22.789Z,0.82
2023-05-10T05:45:09.922Z,0.75
2023-05-10T05:47:55.513Z,0.80
2023-05-10T05:50:41.209Z,0.85
2023-05-10T05:53:26.687Z,0.98
2023-05-10T05:56:12.010Z,0.90
2023-05-10T05:58:57.333Z,0.90
2023-05-10T06:01:42.557Z,0.65
2023-05-10T06:04:28.262Z,0.60
2023-05-10T06:07:13.929Z,0.80
2023-05-10T06:09:59.681Z,0.70
2023-05-10T06:12:45.062Z,0.52
2023-05-10T06:15:30.545Z,0.80
2023-05-10T06:18:16.235Z,0.70
2023-05-10T06:21:01.832Z,0.90
2023-05-10T06:23:47.364Z,0.63
2023-05-10T06:26:32.655Z,0.70
2023-05-10T06:29:18.626Z,0.73
2023-05-10T06:32:04.480Z,0.60
2023-05-10T06:34:49.949Z,0.73
2023-05-10T06:37:35.677Z,0.75
2023-05-10T06:40:21.440Z,0.70
2023-05-10T06:43:06.866Z,0.60
2023-05-10T06:45:52.906Z,0.90
2023-05-10T06:48:38.591Z,0.60
2023-05-10T06:51:24.186Z,0.90
2023-05-10T06:54:09.776Z,0.70
2023-05-10T06:56:55.182Z,0.77
2023-05-10T06:59:40.777Z,0.80
2023-05-10T07:02:26.655Z,0.95
2023-05-10T07:05:13.313Z,0.80
2023-05-10T07:07:59.020Z,0.90
2023-05-10T07:10:44.434Z,1.60
2023-05-10T07:13:31.278Z,0.98
2023-05-10T07:16:16.693Z,1.10
2023-05-10T07:19:03.312Z,0.75
2023-05-10T07:21:48.969Z,0.80
2023-05-10T07:24:34.495Z,1.00
2023-05-10T07:27:19.849Z,1.52
2023-05-10T07:30:05.648Z,1.20
2023-05-10T07:32:51.210Z,1.15
2023-05-10T07:35:37.188Z,0.90
2023-05-10T07:38:22.736Z,1.10
2023-05-10T07:41:07.993Z,1.10
2023-05-10T07:43:53.457Z,1.13
2023-05-10T07:46:39.168Z,1.10
2023-05-10T07:49:27.381Z,0.82
2023-05-10T07:52:12.911Z,1.10
2023-05-10T07:54:58.601Z,1.10
2023-05-10T07:57:44.433Z,1.20
2023-05-10T08:00:30.019Z,1.00
2023-05-10T08:03:15.908Z,1.20
2023-05-10T08:06:01.566Z,0.90
2023-05-10T08:08:50.472Z,0.95
2023-05-10T08:11:36.542Z,1.10
2023-05-10T08:14:22.201Z,1.10
2023-05-10T08:17:07.844Z,1.27
2023-05-10T08:19:53.322Z,1.05
2023-05-10T08:22:38.859Z,1.00
2023-05-10T08:25:24.393Z,1.00
2023-05-10T08:28:11.278Z,1.20
2023-05-10T08:30:57.377Z,1.20
2023-05-10T08:33:44.438Z,1.40
2023-05-10T08:36:30.129Z,1.60
2023-05-10T08:39:26.716Z,1.48
2023-05-10T08:42:21.384Z,1.30
2023-05-10T08:45:11.426Z,1.13
2023-05-10T08:47:56.925Z,1.00
2023-05-10T08:50:43.979Z,1.05
2023-05-10T08:53:32.885Z,1.15
2023-05-10T08:56:18.989Z,1.15
2023-05-10T08:59:04.422Z,1.20
2023-05-10T09:01:51.504Z,1.25
2023-05-10T09:04:36.946Z,1.20
2023-05-10T09:07:22.482Z,1.00
2023-05-10T09:10:09.575Z,1.33
2023-05-10T09:12:59.517Z,1.10
2023-05-10T09:15:52.817Z,1.10
2023-05-10T09:18:41.485Z,1.20
2023-05-10T09:21:27.737Z,1.30
2023-05-10T09:24:13.476Z,1.38
2023-05-10T09:27:01.636Z,1.35
2023-05-10T09:29:54.541Z,1.23
2023-05-10T09:32:48.007Z,1.25
2023-05-10T09:35:34.715Z,1.05
2023-05-10T09:38:20.150Z,1.35
2023-05-10T09:41:05.636Z,1.33
2023-05-10T09:43:56.085Z,1.40
2023-05-10T09:46:41.767Z,1.30
2023-05-10T09:49:27.442Z,1.35
2023-05-10T09:52:12.702Z,1.30
2023-05-10T09:54:58.721Z,1.70
2023-05-10T09:57:44.139Z,1.30
2023-05-10T10:00:35.270Z,1.60
2023-05-10T10:03:22.147Z,1.75
2023-05-10T10:06:18.795Z,1.35
2023-05-10T10:09:09.030Z,1.42
2023-05-10T10:11:55.483Z,1.10
2023-05-10T10:14:41.501Z,1.25
2023-05-10T10:17:29.320Z,1.42
2023-05-10T10:20:16.513Z,1.77
2023-05-10T10:23:03.337Z,1.52
2023-05-10T10:25:50.012Z,1.40
2023-05-10T10:29:13.513Z,1.40
2023-05-10T10:32:11.980Z,1.45
2023-05-10T10:34:58.070Z,1.38
2023-05-10T10:37:48.238Z,1.00
2023-05-10T10:40:35.335Z,1.20
2023-05-10T10:43:28.914Z,1.23
2023-05-10T10:46:18.834Z,1.20
2023-05-10T10:49:11.580Z,1.25
2023-05-10T10:52:30.991Z,1.20
2023-05-10T10:55:19.945Z,1.00
2023-05-10T10:58:06.750Z,1.27
2023-05-10T11:01:14.475Z,1.10
2023-05-10T11:03:59.843Z,1.40
2023-05-10T11:06:45.258Z,1.35
2023-05-10T11:09:41.085Z,1.10
2023-05-10T11:12:26.434Z,1.05
2023-05-10T11:15:12.324Z,1.00
2023-05-10T11:17:57.656Z,1.20
2023-05-10T11:20:43.289Z,1.13
2023-05-10T11:23:50.202Z,1.10
2023-05-10T11:26:36.884Z,0.82
2023-05-10T11:29:22.478Z,1.00
2023-05-10T11:32:09.233Z,0.82
2023-05-10T11:34:54.812Z,1.20
2023-05-10T11:37:44.382Z,0.93
2023-05-10T11:40:29.686Z,1.17
2023-05-10T11:43:15.174Z,0.90
2023-05-10T11:46:01.210Z,1.05
2023-05-10T11:48:47.811Z,0.90
2023-05-10T11:51:36.694Z,1.92
2023-05-10T11:54:22.256Z,0.90
2023-05-10T11:57:07.755Z,0.82
2023-05-10T11:59:57.763Z,0.80
2023-05-10T12:02:43.767Z,0.73
2023-05-10T12:05:32.332Z,0.80
2023-05-10T12:08:23.683Z,0.95
2023-05-10T12:11:11.488Z,0.90
2023-05-10T12:13:57.784Z,1.00
2023-05-10T12:16:44.641Z,0.80
2023-05-10T12:19:38.705Z,1.00
2023-05-10T12:22:24.358Z,0.80
2023-05-10T12:25:10.838Z,0.93
2023-05-10T12:27:58.701Z,0.80
2023-05-10T12:30:45.562Z,0.90
2023-05-10T12:33:40.147Z,0.93
2023-05-10T12:36:26.422Z,1.10
2023-05-10T12:39:12.733Z,1.00
2023-05-10T12:41:58.432Z,0.90
2023-05-10T12:44:43.737Z,1.10
2023-05-10T12:47:29.717Z,1.23
2023-05-10T12:50:15.961Z,1.17
2023-05-10T12:53:01.884Z,1.13
2023-05-10T12:55:47.113Z,1.00
2023-05-10T12:58:35.974Z,1.73
2023-05-10T13:01:21.854Z,1.00
2023-05-10T13:04:07.256Z,1.20
2023-05-10T13:06:53.145Z,1.08
2023-05-10T13:09:39.596Z,1.33
2023-05-10T13:12:25.218Z,1.10
2023-05-10T13:15:11.063Z,1.17
2023-05-10T13:17:56.667Z,1.27
2023-05-10T13:20:44.088Z,1.35
2023-05-10T13:23:29.723Z,1.10
2023-05-10T13:26:15.539Z,1.05
2023-05-10T13:29:01.077Z,1.27
2023-05-10T13:31:46.933Z,1.67
2023-05-10T13:34:33.033Z,1.20
2023-05-10T13:37:18.794Z,1.30
2023-05-10T13:40:07.344Z,1.05
2023-05-10T13:42:52.709Z,1.20
2023-05-10T13:45:38.204Z,1.30
2023-05-10T13:48:26.236Z,1.13
2023-05-10T13:51:11.776Z,1.10
2023-05-10T13:53:57.111Z,1.35
2023-05-10T13:56:43.629Z,1.80
2023-05-10T13:59:34.555Z,1.40
2023-05-10T14:02:19.926Z,1.55
2023-05-10T14:05:05.932Z,1.20
2023-05-10T14:07:51.933Z,1.25
2023-05-10T14:10:38.032Z,1.10
2023-05-10T14:13:24.195Z,0.85
2023-05-10T14:16:09.909Z,0.80
2023-05-10T14:18:55.167Z,0.85
2023-05-10T14:21:40.772Z,0.73
2023-05-10T14:24:26.303Z,0.82
2023-05-10T14:27:11.809Z,1.00
2023-05-10T14:29:57.537Z,0.80
2023-05-10T14:32:43.062Z,0.98
2023-05-10T14:35:29.252Z,0.77
2023-05-10T14:38:15.445Z,1.02
2023-05-10T14:41:00.868Z,1.00
2023-05-10T14:43:46.989Z,0.90
2023-05-10T14:46:32.444Z,1.80
2023-05-10T14:49:18.113Z,0.90
2023-05-10T14:52:04.218Z,0.80
2023-05-10T14:54:49.627Z,0.80
2023-05-10T14:57:35.277Z,0.80
2023-05-10T15:00:21.728Z,1.33
2023-05-10T15:03:07.672Z,0.60
2023-05-10T15:05:54.169Z,0.68
2023-05-10T15:08:39.660Z,0.70
2023-05-10T15:11:25.074Z,0.65
2023-05-10T15:14:10.931Z,0.75
2023-05-10T15:16:56.217Z,1.02
2023-05-10T15:19:41.749Z,0.70
2023-05-10T15:22:29.226Z,0.45
2023-05-10T15:25:15.522Z,0.90
2023-05-10T15:28:01.370Z,0.77
2023-05-10T15:30:46.842Z,0.60
2023-05-10T15:33:32.192Z,0.50
2023-05-10T15:36:19.017Z,0.60
2023-05-10T15:39:04.917Z,0.60
2023-05-10T15:41:50.509Z,0.50
2023-05-10T15:44:36.164Z,0.63
2023-05-10T15:47:21.751Z,0.50
2023-05-10T15:50:08.492Z,0.60
2023-05-10T15:52:54.124Z,0.65
2023-05-10T15:55:39.669Z,0.50
2023-05-10T15:58:24.951Z,0.50
2023-05-10T16:01:12.301Z,0.60
2023-05-10T16:03:58.067Z,0.60
2023-05-10T16:06:43.447Z,0.40
2023-05-10T16:09:28.870Z,0.50
2023-05-10T16:12:14.828Z,0.60
2023-05-10T16:15:00.158Z,0.63
2023-05-10T16:17:46.002Z,0.50
2023-05-10T16:20:32.996Z,0.40
2023-05-10T16:23:18.710Z,0.50
2023-05-10T16:26:04.288Z,0.70
2023-05-10T16:28:49.740Z,0.40
2023-05-10T16:31:35.616Z,0.40
2023-05-10T16:34:24.327Z,0.40
2023-05-10T16:37:09.923Z,0.55
2023-05-10T16:39:55.343Z,0.50
2023-05-10T16:42:40.978Z,0.60
2023-05-10T16:45:27.038Z,0.57
2023-05-10T16:48:12.272Z,0.50
2023-05-10T16:50:57.909Z,0.65
2023-05-10T16:53:43.383Z,0.60
2023-05-10T16:56:28.672Z,0.45
2023-05-10T16:59:14.242Z,0.50
2023-05-10T17:01:59.815Z,0.43
2023-05-10T17:04:45.380Z,0.45
2023-05-10T17:07:31.159Z,0.40
2023-05-10T17:10:16.979Z,0.60
2023-05-10T17:13:03.070Z,0.60
2023-05-10T17:15:48.688Z,0.60
2023-05-10T17:18:33.977Z,0.70
2023-05-10T17:21:19.629Z,0.50
2023-05-10T17:24:05.470Z,0.70
2023-05-10T17:26:50.743Z,0.60
2023-05-10T17:29:36.102Z,0.65
2023-05-10T17:32:21.729Z,0.52
2023-05-10T17:35:07.527Z,0.65
2023-05-10T17:37:53.360Z,0.60
2023-05-10T17:40:41.464Z,0.75
2023-05-10T17:43:27.076Z,0.50
2023-05-10T17:46:13.060Z,0.60
2023-05-10T17:48:58.586Z,0.63
2023-05-10T17:51:44.193Z,0.60
2023-05-10T17:54:29.373Z,0.43
2023-05-10T17:57:14.915Z,0.63
2023-05-10T18:00:02.266Z,0.60
2023-05-10T18:02:48.010Z,0.93
2023-05-10T18:05:38.068Z,0.40
2023-05-10T18:08:26.985Z,0.50
2023-05-10T18:11:12.373Z,0.57
2023-05-10T18:13:58.357Z,0.60
2023-05-10T18:16:46.702Z,0.40
2023-05-10T18:19:32.444Z,0.40
2023-05-10T18:22:18.094Z,0.50
2023-05-10T18:25:03.448Z,0.75
2023-05-10T18:27:49.095Z,0.40
2023-05-10T18:30:35.246Z,0.80
2023-05-10T18:33:20.778Z,0.50
2023-05-10T18:36:06.216Z,0.50
2023-05-10T18:38:51.670Z,0.60
2023-05-10T18:41:36.950Z,0.40
2023-05-10T18:44:25.955Z,0.70
2023-05-10T18:47:13.942Z,0.50
2023-05-10T18:50:01.716Z,0.60
2023-05-10T18:52:47.608Z,0.55
2023-05-10T18:55:33.328Z,0.60
2023-05-10T18:58:19.990Z,0.50
2023-05-10T19:01:05.689Z,0.60
2023-05-10T19:03:51.069Z,0.50
2023-05-10T19:06:36.868Z,0.75
2023-05-10T19:09:22.636Z,0.88
2023-05-10T19:12:08.915Z,0.70
2023-05-10T19:14:54.309Z,0.68
2023-05-10T19:17:40.486Z,0.80
2023-05-10T19:20:26.046Z,0.75
2023-05-10T19:23:11.921Z,0.60
2023-05-10T19:25:58.037Z,0.60
2023-05-10T19:28:43.353Z,0.73
2023-05-10T19:31:29.026Z,0.70
2023-05-10T19:34:14.267Z,0.60
2023-05-10T19:36:59.580Z,0.60
2023-05-10T19:39:45.288Z,0.63
2023-05-10T19:42:30.650Z,0.50
2023-05-10T19:45:16.909Z,0.85
2023-05-10T19:48:02.841Z,0.70
2023-05-10T19:50:48.328Z,0.57
2023-05-10T19:53:33.559Z,0.90
2023-05-10T19:56:18.868Z,1.00
2023-05-10T19:59:04.351Z,0.95
2023-05-10T20:01:49.517Z,0.90
2023-05-10T20:04:35.257Z,0.88
2023-05-10T20:07:20.611Z,1.10
2023-05-10T20:10:06.443Z,1.00
2023-05-10T20:12:52.932Z,1.00
2023-05-10T20:15:38.637Z,1.73
2023-05-10T20:18:24.527Z,1.42
2023-05-10T20:21:09.902Z,1.08
2023-05-10T20:23:55.162Z,1.00
2023-05-10T20:26:41.030Z,1.20
2023-05-10T20:29:26.757Z,0.90
2023-05-10T20:32:12.452Z,0.90
2023-05-10T20:34:58.309Z,0.80
2023-05-10T20:37:43.826Z,1.33
2023-05-10T20:40:29.450Z,1.00
2023-05-10T20:43:14.879Z,0.88
2023-05-10T20:46:05.431Z,0.90
2023-05-10T20:48:51.316Z,1.00
2023-05-10T20:51:36.950Z,1.05
2023-05-10T20:54:24.359Z,0.90
2023-05-10T20:57:12.765Z,1.00
2023-05-10T20:59:58.195Z,0.90
2023-05-10T21:02:46.035Z,0.90
2023-05-10T21:05:31.411Z,0.90
2023-05-10T21:08:16.678Z,1.02
2023-05-10T21:11:05.763Z,1.00
2023-05-10T21:13:51.506Z,1.00
2023-05-10T21:16:36.997Z,1.20
2023-05-10T21:19:22.496Z,1.05
2023-05-10T21:22:07.938Z,0.90
2023-05-10T21:24:53.170Z,1.20
2023-05-10T21:27:39.177Z,1.00
2023-05-10T21:30:25.038Z,0.90
2023-05-10T21:33:10.379Z,0.80
2023-05-10T21:35:55.808Z,0.88
2023-05-10T21:38:42.357Z,1.20
2023-05-10T21:41:28.436Z,1.00
2023-05-10T21:44:13.765Z,1.08
2023-05-10T21:46:58.978Z,0.80
2023-05-10T21:49:44.946Z,1.20
2023-05-10T21:52:30.227Z,7.82
2023-05-10T21:55:17.228Z,9.10
2023-05-10T21:58:02.742Z,4.35
2023-05-10T22:00:48.638Z,4.43
2023-05-10T22:03:34.308Z,1.90
2023-05-10T22:06:19.822Z,1.48
2023-05-10T22:09:05.173Z,1.05
2023-05-10T22:11:50.763Z,1.20
2023-05-10T22:14:36.120Z,1.27
2023-05-10T22:17:21.563Z,1.00
2023-05-10T22:20:08.061Z,1.08
2023-05-10T22:22:55.162Z,1.13
2023-05-10T22:25:40.820Z,1.17
2023-05-10T22:28:26.429Z,1.00
2023-05-10T22:31:12.666Z,0.85
2023-05-10T22:33:58.565Z,0.98
2023-05-10T22:36:44.580Z,1.10
2023-05-10T22:39:30.113Z,1.17
2023-05-10T22:42:16.653Z,1.00
2023-05-10T22:45:02.202Z,0.82
2023-05-10T22:47:47.603Z,1.13
2023-05-10T22:50:33.168Z,1.02
2023-05-10T22:53:18.539Z,1.10
2023-05-10T22:56:03.922Z,1.10
2023-05-10T22:58:50.330Z,1.10
2023-05-10T23:01:35.979Z,0.98
2023-05-10T23:04:21.454Z,0.93
2023-05-10T23:07:07.106Z,1.00
2023-05-10T23:09:52.486Z,1.30
2023-05-10T23:12:38.045Z,1.38
2023-05-10T23:15:23.925Z,1.00
2023-05-10T23:18:09.846Z,1.08
2023-05-10T23:20:55.637Z,1.70
2023-05-10T23:23:41.444Z,0.90
2023-05-10T23:26:27.280Z,1.00
2023-05-10T23:29:13.204Z,1.10
2023-05-10T23:31:58.579Z,0.90
2023-05-10T23:34:43.786Z,0.90
2023-05-10T23:37:30.869Z,0.95
2023-05-10T23:40:17.118Z,1.05
2023-05-10T23:43:03.101Z,1.02
2023-05-10T23:45:56.045Z,1.58
2023-05-10T23:48:41.548Z,1.23
2023-05-10T23:51:28.228Z,0.98
2023-05-10T23:54:13.490Z,0.93
2023-05-10T23:56:58.804Z,1.10
2023-05-10T23:59:44.739Z,1.10
